Terminal Aerodrome Forecast
Issued by NWS Flagstaff, AZ

Home | Current Version | Previous Version | Text Only | Print | Product List | Glossary On
Versions: 1 2 3 4 5 6 7 8 9 10 11 12 13 14 15 16 17 18 19 20 21 22
000
FTUS45 KFGZ 040542
TAFFLG
TAF
KFLG 040542Z 0406/0506 21005KT P6SM SCT060
     FM041300 16007KT P6SM VCSH SCT035 BKN050
     FM041500 16007KT P6SM -SHRA BKN035
     FM041600 19009KT 6SM -SHRA BKN030 BKN050
      TEMPO 0417/0421 5SM -TSRA OVC030CB=

USA.gov is the U.S. government's official web portal to all federal, state and local government web resources and services.